Time;durP1;ratioP1;P1;durP2;ratioP2;P2;SDS_P1;SDS_P2;PMS_P1;PMS_P2;Temp;Humidity;BMP_temperature;BMP_pressure;BME280_temperature;BME280_humidity;BME280_pressure;Samples;Min_cycle;Max_cycle;Signal;HPM_P1;HPM_P2
2023/05/10 00:01:53;;;;;;;26.07;19.87;;;;;;;;;;5016914;28;20189;-85
2023/05/10 00:04:19;;;;;;;25.37;19.87;;;;;;;;;;5016887;28;20219;-86
2023/05/10 00:06:45;;;;;;;26.63;21.33;;;;;;;;;;5000263;28;20208;-86
2023/05/10 00:09:11;;;;;;;26.30;21.30;;;;;;;;;;5016760;28;20188;-86
2023/05/10 00:11:37;;;;;;;30.10;21.83;;;;;;;;;;5000328;28;20181;-86
2023/05/10 00:14:03;;;;;;;32.17;22.50;;;;;;;;;;5000365;28;20237;-86
2023/05/10 00:16:29;;;;;;;29.50;22.43;;;;;;;;;;5000305;28;20188;-86
2023/05/10 00:18:55;;;;;;;34.70;24.90;;;;;;;;;;5016662;28;20185;-86
2023/05/10 00:21:21;;;;;;;35.53;24.63;;;;;;;;;;5000475;28;20192;-86
2023/05/10 00:23:47;;;;;;;35.53;25.30;;;;;;;;;;5016608;28;20230;-86
2023/05/10 00:26:13;;;;;;;35.27;25.60;;;;;;;;;;4997043;28;20204;-86
2023/05/10 00:28:39;;;;;;;33.90;25.37;;;;;;;;;;5001498;28;20225;-86
2023/05/10 00:31:05;;;;;;;42.40;28.77;;;;;;;;;;4997039;28;20177;-81
2023/05/10 00:33:31;;;;;;;48.30;31.67;;;;;;;;;;4996930;28;20181;-81
2023/05/10 00:35:57;;;;;;;46.87;29.73;;;;;;;;;;5004149;28;20192;-81
2023/05/10 00:38:23;;;;;;;54.13;33.20;;;;;;;;;;5030003;28;20212;-82
2023/05/10 00:40:49;;;;;;;57.50;33.80;;;;;;;;;;5032782;28;20263;-82
2023/05/10 00:43:15;;;;;;;59.10;34.73;;;;;;;;;;5033271;28;20215;-82
2023/05/10 00:45:41;;;;;;;59.60;34.47;;;;;;;;;;5016140;28;20196;-86
2023/05/10 00:48:08;;;;;;;60.53;35.57;;;;;;;;;;5016252;28;20183;-86
2023/05/10 00:50:34;;;;;;;57.77;35.73;;;;;;;;;;5016141;28;20192;-86
2023/05/10 00:53:01;;;;;;;66.80;36.97;;;;;;;;;;5037697;28;20184;-86
2023/05/10 00:55:31;;;;;;;68.23;40.90;;;;;;;;;;5034064;28;20180;-86
2023/05/10 00:57:57;;;;;;;71.53;41.50;;;;;;;;;;5023474;28;20204;-85
2023/05/10 01:00:25;;;;;;;69.30;40.73;;;;;;;;;;5025521;28;20203;-86
2023/05/10 01:02:52;;;;;;;71.10;42.17;;;;;;;;;;5002790;28;20192;-82
2023/05/10 01:05:21;;;;;;;78.57;44.33;;;;;;;;;;5032610;28;20188;-82
2023/05/10 01:07:48;;;;;;;76.37;43.83;;;;;;;;;;5037401;28;20239;-80
2023/05/10 01:10:14;;;;;;;84.20;47.13;;;;;;;;;;5036254;28;20196;-80
2023/05/10 01:12:41;;;;;;;79.23;45.13;;;;;;;;;;5031084;28;20200;-80
2023/05/10 01:15:08;;;;;;;88.73;47.50;;;;;;;;;;5024438;28;20207;-80
2023/05/10 01:17:36;;;;;;;84.40;48.33;;;;;;;;;;5016502;28;20184;-82
2023/05/10 01:20:02;;;;;;;86.67;48.60;;;;;;;;;;5024482;28;20255;-86
2023/05/10 01:22:41;;;;;;;84.90;48.63;;;;;;;;;;5026709;28;20191;-86
2023/05/10 01:25:13;;;;;;;90.93;48.10;;;;;;;;;;5028572;28;20181;-87
2023/05/10 01:27:56;;;;;;;87.00;49.60;;;;;;;;;;5030619;28;20199;-86
2023/05/10 01:30:40;;;;;;;95.03;49.83;;;;;;;;;;5033020;28;20199;-86
2023/05/10 01:33:28;;;;;;;97.13;50.73;;;;;;;;;;5026988;28;20177;-87
2023/05/10 01:35:57;;;;;;;93.43;49.90;;;;;;;;;;5037513;28;20176;-86
2023/05/10 01:38:33;;;;;;;102.13;51.73;;;;;;;;;;5024856;28;20177;-86
2023/05/10 01:41:02;;;;;;;109.80;53.93;;;;;;;;;;5036051;28;20220;-86
2023/05/10 01:43:39;;;;;;;103.47;52.57;;;;;;;;;;5029389;28;20244;-86
2023/05/10 01:46:10;;;;;;;106.93;54.40;;;;;;;;;;5015921;28;20181;-86
2023/05/10 01:48:47;;;;;;;100.90;51.90;;;;;;;;;;5020048;28;20172;-86
2023/05/10 01:51:17;;;;;;;100.10;53.47;;;;;;;;;;5036399;28;20184;-86
2023/05/10 01:53:45;;;;;;;100.50;52.80;;;;;;;;;;5036128;28;20177;-86
2023/05/10 01:56:12;;;;;;;102.60;53.20;;;;;;;;;;5020303;28;20188;-86
2023/05/10 01:58:38;;;;;;;96.30;50.97;;;;;;;;;;5029138;28;20270;-86
2023/05/10 02:01:05;;;;;;;98.13;51.03;;;;;;;;;;5035319;28;20208;-80
2023/05/10 02:03:31;;;;;;;98.90;50.60;;;;;;;;;;5018218;28;20212;-80
2023/05/10 02:05:58;;;;;;;98.20;50.03;;;;;;;;;;5036213;28;20212;-80
2023/05/10 02:08:24;;;;;;;93.30;48.47;;;;;;;;;;5035814;28;20192;-80
2023/05/10 02:10:51;;;;;;;87.50;49.20;;;;;;;;;;5035666;28;20181;-81
2023/05/10 02:13:18;;;;;;;91.83;47.80;;;;;;;;;;5036631;28;20177;-81
2023/05/10 02:15:47;;;;;;;87.27;46.60;;;;;;;;;;5018916;28;20189;-81
2023/05/10 02:18:14;;;;;;;81.07;44.60;;;;;;;;;;5035058;28;20267;-81
2023/05/10 02:20:40;;;;;;;92.33;47.93;;;;;;;;;;5036267;28;20208;-82
2023/05/10 02:23:06;;;;;;;92.70;48.47;;;;;;;;;;5019036;28;20177;-82
2023/05/10 02:25:33;;;;;;;84.03;46.57;;;;;;;;;;5035390;28;20200;-82
2023/05/10 02:28:00;;;;;;;84.63;44.90;;;;;;;;;;5014213;28;20176;-82
2023/05/10 02:30:26;;;;;;;83.80;45.60;;;;;;;;;;5036424;28;20180;-81
2023/05/10 02:32:53;;;;;;;84.03;45.57;;;;;;;;;;5036156;28;20188;-82
2023/05/10 02:35:19;;;;;;;85.73;45.50;;;;;;;;;;5018679;28;20187;-81
2023/05/10 02:37:45;;;;;;;86.73;44.40;;;;;;;;;;5002171;28;20197;-82
2023/05/10 02:40:12;;;;;;;91.40;45.70;;;;;;;;;;5001934;28;20220;-82
2023/05/10 02:42:39;;;;;;;83.17;43.97;;;;;;;;;;5032304;28;20219;-82
2023/05/10 02:45:13;;;;;;;92.40;45.17;;;;;;;;;;4982649;28;20181;-82
2023/05/10 02:47:39;;;;;;;96.47;45.90;;;;;;;;;;5008529;28;20235;-82
2023/05/10 02:50:05;;;;;;;101.13;46.77;;;;;;;;;;5036093;28;20177;-82
2023/05/10 02:52:40;;;;;;;94.73;45.67;;;;;;;;;;5032807;28;20188;-81
2023/05/10 02:55:07;;;;;;;90.20;45.30;;;;;;;;;;5015897;28;20173;-80
2023/05/10 02:57:34;;;;;;;100.23;46.67;;;;;;;;;;5013320;28;20176;-80
2023/05/10 03:00:01;;;;;;;94.73;45.83;;;;;;;;;;5017883;28;20291;-82
2023/05/10 03:02:27;;;;;;;101.90;48.03;;;;;;;;;;5009345;28;20216;-81
2023/05/10 03:04:53;;;;;;;99.80;48.57;;;;;;;;;;5006150;28;20170;-87
2023/05/10 03:07:21;;;;;;;106.37;48.40;;;;;;;;;;5016699;28;20222;-87
2023/05/10 03:09:47;;;;;;;96.43;48.23;;;;;;;;;;5001908;28;20189;-87
2023/05/10 03:12:32;;;;;;;99.60;49.00;;;;;;;;;;5017735;28;20188;-88
2023/05/10 03:14:58;;;;;;;94.50;48.70;;;;;;;;;;5016818;28;20184;-87
2023/05/10 03:17:29;;;;;;;98.57;48.50;;;;;;;;;;5017875;28;20262;-83
2023/05/10 03:19:56;;;;;;;104.73;49.33;;;;;;;;;;5017647;28;20342;-83
2023/05/10 03:22:28;;;;;;;100.33;49.43;;;;;;;;;;5017216;28;20211;-83
2023/05/10 03:24:57;;;;;;;104.57;50.83;;;;;;;;;;5017325;28;20184;-83
2023/05/10 03:27:24;;;;;;;103.07;51.20;;;;;;;;;;5017494;28;20177;-83
2023/05/10 03:29:51;;;;;;;106.63;52.97;;;;;;;;;;5052320;28;20228;-83
2023/05/10 03:32:17;;;;;;;101.47;52.40;;;;;;;;;;5020011;28;20199;-83
2023/05/10 03:34:43;;;;;;;100.47;51.70;;;;;;;;;;5016717;28;20196;-82
2023/05/10 03:37:16;;;;;;;99.67;52.10;;;;;;;;;;5062633;28;20629;-82
2023/05/10 03:39:42;;;;;;;97.90;51.47;;;;;;;;;;5050418;28;20211;-82
2023/05/10 03:42:08;;;;;;;101.50;53.63;;;;;;;;;;5050559;28;20282;-82
2023/05/10 03:44:34;;;;;;;90.00;48.63;;;;;;;;;;5070912;22;20276;-87
2023/05/10 03:47:00;;;;;;;90.33;49.33;;;;;;;;;;5010357;28;20293;-86
2023/05/10 03:49:26;;;;;;;95.20;50.03;;;;;;;;;;5027286;28;20237;-81
2023/05/10 03:51:52;;;;;;;93.10;50.93;;;;;;;;;;5010688;28;20284;-81
2023/05/10 03:54:18;;;;;;;99.37;50.30;;;;;;;;;;5009828;28;20220;-81
2023/05/10 03:56:44;;;;;;;96.30;51.57;;;;;;;;;;5003728;28;20238;-81
2023/05/10 03:59:10;;;;;;;92.17;50.23;;;;;;;;;;5007302;28;20273;-81
2023/05/10 04:01:36;;;;;;;89.53;49.40;;;;;;;;;;4994348;28;20213;-81
2023/05/10 04:04:02;;;;;;;93.07;50.40;;;;;;;;;;4994280;28;20219;-81
2023/05/10 04:06:28;;;;;;;96.97;52.33;;;;;;;;;;4994093;28;20185;-87
2023/05/10 04:08:55;;;;;;;91.43;51.87;;;;;;;;;;4990321;28;20182;-88
2023/05/10 04:11:21;;;;;;;110.93;54.87;;;;;;;;;;4991410;28;20242;-87
2023/05/10 04:13:48;;;;;;;101.47;53.40;;;;;;;;;;5007029;28;20186;-86
2023/05/10 04:16:14;;;;;;;101.37;54.17;;;;;;;;;;5003863;28;20209;-85
2023/05/10 04:18:40;;;;;;;91.17;52.60;;;;;;;;;;5009127;28;20188;-87
2023/05/10 04:21:12;;;;;;;94.80;52.63;;;;;;;;;;5010341;28;20224;-87
2023/05/10 04:23:38;;;;;;;97.30;51.97;;;;;;;;;;5019949;28;20246;-86
2023/05/10 04:26:04;;;;;;;93.17;51.53;;;;;;;;;;5012474;28;20251;-86
2023/05/10 04:28:30;;;;;;;92.87;51.83;;;;;;;;;;5023499;28;20181;-86
2023/05/10 04:31:03;;;;;;;95.67;50.90;;;;;;;;;;5021526;28;20181;-87
2023/05/10 04:33:29;;;;;;;84.50;49.47;;;;;;;;;;5006811;28;20190;-87
2023/05/10 04:35:56;;;;;;;88.03;48.33;;;;;;;;;;5005014;28;20213;-85
2023/05/10 04:38:22;;;;;;;82.43;46.73;;;;;;;;;;5001533;28;20238;-86
2023/05/10 04:40:48;;;;;;;76.60;45.33;;;;;;;;;;5024867;28;20189;-82
2023/05/10 04:43:14;;;;;;;82.63;45.40;;;;;;;;;;5008857;28;20269;-82
2023/05/10 04:45:40;;;;;;;72.43;44.47;;;;;;;;;;5009512;28;20320;-82
2023/05/10 04:48:07;;;;;;;74.73;43.00;;;;;;;;;;4998967;28;20276;-82
2023/05/10 04:50:33;;;;;;;73.37;42.23;;;;;;;;;;4996634;28;20285;-82
2023/05/10 04:52:59;;;;;;;73.40;44.10;;;;;;;;;;4996432;28;20280;-82
2023/05/10 04:55:26;;;;;;;72.53;43.37;;;;;;;;;;4993417;28;20304;-82
2023/05/10 04:57:52;;;;;;;81.17;44.07;;;;;;;;;;4979859;28;20178;-79
2023/05/10 05:00:19;;;;;;;75.97;44.63;;;;;;;;;;4996169;28;20207;-82
2023/05/10 05:02:45;;;;;;;87.23;46.00;;;;;;;;;;4979777;28;20236;-82
2023/05/10 05:05:11;;;;;;;81.20;44.77;;;;;;;;;;4996156;28;20189;-82
2023/05/10 05:07:38;;;;;;;76.00;45.27;;;;;;;;;;4980045;28;20196;-82
2023/05/10 05:10:04;;;;;;;81.60;44.33;;;;;;;;;;4979871;28;20213;-82
2023/05/10 05:12:31;;;;;;;87.43;46.20;;;;;;;;;;4996007;28;20185;-86
2023/05/10 05:14:57;;;;;;;83.47;44.90;;;;;;;;;;4979484;28;20209;-86
2023/05/10 05:17:23;;;;;;;77.20;42.50;;;;;;;;;;4992725;28;20179;-86
2023/05/10 05:19:49;;;;;;;83.50;43.43;;;;;;;;;;4976954;28;20182;-87
2023/05/10 05:22:15;;;;;;;81.40;44.10;;;;;;;;;;4990333;28;20190;-86
2023/05/10 05:24:41;;;;;;;84.13;44.53;;;;;;;;;;4989833;28;20189;-86
2023/05/10 05:27:07;;;;;;;81.63;44.67;;;;;;;;;;4980621;28;20190;-86
2023/05/10 05:29:33;;;;;;;81.97;44.33;;;;;;;;;;4991550;28;20213;-80
2023/05/10 05:31:59;;;;;;;82.33;43.13;;;;;;;;;;4985664;28;20201;-80
2023/05/10 05:34:25;;;;;;;74.97;42.57;;;;;;;;;;4993804;28;20196;-80
2023/05/10 05:36:51;;;;;;;75.10;41.43;;;;;;;;;;4987754;28;20248;-80
2023/05/10 05:39:17;;;;;;;75.03;43.07;;;;;;;;;;4980041;28;20193;-80
2023/05/10 05:41:44;;;;;;;75.60;43.10;;;;;;;;;;4979991;28;20285;-80
2023/05/10 05:44:10;;;;;;;75.43;41.47;;;;;;;;;;4979883;28;20178;-80
2023/05/10 05:46:36;;;;;;;73.80;41.60;;;;;;;;;;4995267;28;20230;-86
2023/05/10 05:49:02;;;;;;;73.17;40.70;;;;;;;;;;4979642;28;20201;-86
2023/05/10 05:51:28;;;;;;;71.57;41.00;;;;;;;;;;4979231;28;20190;-82
2023/05/10 05:53:54;;;;;;;68.13;41.23;;;;;;;;;;4977775;28;20210;-81
2023/05/10 05:56:24;;;;;;;72.53;41.03;;;;;;;;;;4993605;28;20249;-82
2023/05/10 05:58:50;;;;;;;71.80;39.73;;;;;;;;;;4994002;28;20185;-82
2023/05/10 06:01:16;;;;;;;68.77;40.53;;;;;;;;;;4994684;28;20193;-82
2023/05/10 06:03:42;;;;;;;65.00;40.30;;;;;;;;;;4978790;28;20194;-82
2023/05/10 06:06:08;;;;;;;71.53;40.93;;;;;;;;;;4995462;28;20192;-86
2023/05/10 06:08:35;;;;;;;65.43;39.17;;;;;;;;;;4994851;28;20178;-86
2023/05/10 06:11:01;;;;;;;63.73;38.63;;;;;;;;;;4978573;28;20190;-86
2023/05/10 06:13:32;;;;;;;74.90;41.20;;;;;;;;;;4994721;28;20193;-86
2023/05/10 06:16:01;;;;;;;66.70;40.47;;;;;;;;;;4979297;28;20213;-86
2023/05/10 06:18:27;;;;;;;69.37;41.20;;;;;;;;;;5011225;28;20181;-86
2023/05/10 06:20:53;;;;;;;69.07;39.30;;;;;;;;;;4994859;28;20205;-86
2023/05/10 06:23:19;;;;;;;75.43;41.53;;;;;;;;;;5003427;28;20193;-86
2023/05/10 06:25:45;;;;;;;77.67;41.43;;;;;;;;;;4993657;28;20194;-86
2023/05/10 06:28:11;;;;;;;74.07;41.10;;;;;;;;;;4993087;28;20284;-85
2023/05/10 06:30:37;;;;;;;77.57;40.77;;;;;;;;;;4990846;28;20186;-86
2023/05/10 06:33:03;;;;;;;76.93;42.47;;;;;;;;;;5006300;28;20188;-85
2023/05/10 06:35:31;;;;;;;73.73;41.07;;;;;;;;;;4992326;28;20218;-85
2023/05/10 06:37:57;;;;;;;75.10;41.70;;;;;;;;;;4991230;28;20179;-82
2023/05/10 06:40:23;;;;;;;81.63;42.90;;;;;;;;;;4976337;28;20182;-82
2023/05/10 06:42:49;;;;;;;85.67;44.10;;;;;;;;;;4991147;28;20178;-83
2023/05/10 06:45:16;;;;;;;81.40;42.70;;;;;;;;;;4994795;28;20253;-80
2023/05/10 06:47:42;;;;;;;68.10;40.97;;;;;;;;;;4994616;28;20193;-80
2023/05/10 06:50:08;;;;;;;74.23;42.13;;;;;;;;;;4978075;28;20197;-80
2023/05/10 06:52:34;;;;;;;74.97;42.17;;;;;;;;;;5010540;28;20221;-86
2023/05/10 06:55:01;;;;;;;76.97;42.20;;;;;;;;;;4995003;28;20209;-85
2023/05/10 06:57:27;;;;;;;75.67;42.07;;;;;;;;;;4982631;28;20194;-80
2023/05/10 06:59:55;;;;;;;76.73;40.40;;;;;;;;;;4974760;28;20185;-80
2023/05/10 07:02:21;;;;;;;68.40;40.13;;;;;;;;;;4975450;28;20210;-80
2023/05/10 07:04:47;;;;;;;68.10;40.20;;;;;;;;;;4974664;28;20250;-80
2023/05/10 07:07:14;;;;;;;70.80;40.30;;;;;;;;;;4984176;28;20209;-79
2023/05/10 07:09:40;;;;;;;77.73;41.17;;;;;;;;;;5009870;28;20190;-82
2023/05/10 07:12:06;;;;;;;68.90;40.40;;;;;;;;;;4993265;28;20194;-80
2023/05/10 07:14:32;;;;;;;70.30;40.47;;;;;;;;;;5000471;28;20186;-80
2023/05/10 07:16:58;;;;;;;70.47;40.97;;;;;;;;;;4977484;28;20214;-81
2023/05/10 07:19:24;;;;;;;70.70;41.87;;;;;;;;;;4977790;28;20389;-81
2023/05/10 07:21:50;;;;;;;70.97;41.80;;;;;;;;;;4977080;28;20197;-80
2023/05/10 07:24:17;;;;;;;73.23;43.20;;;;;;;;;;4994071;28;20190;-81
2023/05/10 07:26:43;;;;;;;75.37;42.67;;;;;;;;;;5009734;28;20277;-81
2023/05/10 07:29:09;;;;;;;65.37;42.30;;;;;;;;;;4993538;28;20233;-80
2023/05/10 07:31:35;;;;;;;68.60;43.83;;;;;;;;;;4993385;28;20216;-80
2023/05/10 07:34:02;;;;;;;67.20;42.77;;;;;;;;;;4993901;28;20258;-81
2023/05/10 07:36:28;;;;;;;69.57;43.33;;;;;;;;;;4993289;28;20220;-80
2023/05/10 07:38:54;;;;;;;68.17;43.07;;;;;;;;;;4993541;28;20186;-80
2023/05/10 07:41:21;;;;;;;68.87;43.70;;;;;;;;;;4993316;28;20186;-80
2023/05/10 07:43:47;;;;;;;68.70;43.47;;;;;;;;;;4990881;28;20174;-82
2023/05/10 07:46:13;;;;;;;77.23;45.37;;;;;;;;;;4974351;28;20238;-83
2023/05/10 07:48:39;;;;;;;74.00;45.03;;;;;;;;;;4992697;28;20201;-83
2023/05/10 07:51:06;;;;;;;72.43;43.20;;;;;;;;;;5010018;28;20220;-83
2023/05/10 07:53:33;;;;;;;67.80;40.50;;;;;;;;;;4992764;28;20197;-82
2023/05/10 07:55:59;;;;;;;73.20;43.30;;;;;;;;;;4977037;28;20245;-82
2023/05/10 07:58:25;;;;;;;69.53;42.93;;;;;;;;;;4993260;28;20185;-82
2023/05/10 08:00:51;;;;;;;66.83;42.33;;;;;;;;;;4993363;28;20173;-86
2023/05/10 08:03:17;;;;;;;66.83;40.90;;;;;;;;;;4993833;28;20182;-86
2023/05/10 08:05:43;;;;;;;61.23;40.03;;;;;;;;;;4993371;28;20208;-86
2023/05/10 08:08:10;;;;;;;59.70;37.57;;;;;;;;;;4993094;28;20196;-86
2023/05/10 08:10:36;;;;;;;54.43;35.93;;;;;;;;;;4989462;28;20195;-86
2023/05/10 08:13:02;;;;;;;53.50;35.50;;;;;;;;;;4974034;28;20205;-81
2023/05/10 08:15:28;;;;;;;51.57;34.20;;;;;;;;;;4992927;28;20210;-81
2023/05/10 08:17:54;;;;;;;50.47;33.23;;;;;;;;;;4977097;28;20193;-81
2023/05/10 08:20:20;;;;;;;51.80;34.53;;;;;;;;;;4989591;28;20354;-81
2023/05/10 08:22:46;;;;;;;49.43;33.73;;;;;;;;;;5008019;28;20239;-80
2023/05/10 08:25:12;;;;;;;47.50;33.60;;;;;;;;;;4993285;28;20273;-81
2023/05/10 08:27:38;;;;;;;49.77;33.77;;;;;;;;;;5007388;28;20189;-81
2023/05/10 08:30:05;;;;;;;45.37;30.87;;;;;;;;;;5032845;28;20255;-80
2023/05/10 09:09:13;;;;;;;37.40;27.13;;;;;;;;;;5109453;27;20555;-82
2023/05/10 09:11:40;;;;;;;40.60;26.53;;;;;;;;;;5090074;28;20194;-84
2023/05/10 09:14:06;;;;;;;34.77;24.97;;;;;;;;;;5093609;28;20225;-84
2023/05/10 09:16:32;;;;;;;36.03;25.40;;;;;;;;;;5095818;28;20180;-84
2023/05/10 09:18:58;;;;;;;31.73;24.50;;;;;;;;;;5103993;28;20216;-85
2023/05/10 09:21:25;;;;;;;27.63;20.87;;;;;;;;;;5092799;28;20206;-85
2023/05/10 09:23:53;;;;;;;26.13;19.57;;;;;;;;;;5091499;28;20186;-85
2023/05/10 09:26:23;;;;;;;25.23;19.13;;;;;;;;;;5093328;28;20214;-83
2023/05/10 09:28:52;;;;;;;26.23;20.33;;;;;;;;;;5110153;28;20298;-83
2023/05/10 09:31:18;;;;;;;24.10;18.83;;;;;;;;;;5111643;28;20174;-83
2023/05/10 09:33:47;;;;;;;24.40;19.03;;;;;;;;;;5110282;28;20206;-83
2023/05/10 09:36:14;;;;;;;21.90;17.10;;;;;;;;;;5110190;28;20178;-83
2023/05/10 09:38:51;;;;;;;19.73;15.47;;;;;;;;;;5109877;28;20208;-83
2023/05/10 09:41:26;;;;;;;17.30;13.87;;;;;;;;;;5109813;28;20180;-83
2023/05/10 09:43:56;;;;;;;16.17;12.77;;;;;;;;;;5092823;28;20189;-83
2023/05/10 09:46:25;;;;;;;16.07;12.93;;;;;;;;;;5110054;28;20182;-83
2023/05/10 09:48:51;;;;;;;15.63;13.57;;;;;;;;;;5093889;28;20178;-85
2023/05/10 09:51:21;;;;;;;16.93;13.00;;;;;;;;;;5093178;28;20277;-85
2023/05/10 09:53:47;;;;;;;12.57;11.03;;;;;;;;;;5109691;28;20267;-85
2023/05/10 09:56:14;;;;;;;12.32;11.00;;;;;;;;;;5109908;28;20434;-85
2023/05/10 09:58:40;;;;;;;13.20;11.80;;;;;;;;;;5108758;28;20437;-85
2023/05/10 10:01:11;;;;;;;12.88;11.48;;;;;;;;;;5108928;28;20396;-85
2023/05/10 10:03:42;;;;;;;11.07;9.95;;;;;;;;;;5109701;28;20403;-85
2023/05/10 10:06:08;;;;;;;12.25;11.05;;;;;;;;;;5108500;28;20536;-85
2023/05/10 10:08:34;;;;;;;13.18;11.75;;;;;;;;;;5104016;28;20433;-86
2023/05/10 10:11:03;;;;;;;13.85;12.18;;;;;;;;;;5078377;28;20405;-85
2023/05/10 10:13:31;;;;;;;13.20;11.90;;;;;;;;;;5078186;28;20411;-85
2023/05/10 10:15:58;;;;;;;12.97;11.47;;;;;;;;;;5078771;28;20495;-85
2023/05/10 10:18:26;;;;;;;13.50;11.93;;;;;;;;;;5078529;28;20485;-85
2023/05/10 10:20:54;;;;;;;13.65;11.90;;;;;;;;;;5078588;28;20450;-83
2023/05/10 10:23:20;;;;;;;13.43;11.65;;;;;;;;;;5095000;28;20401;-83
2023/05/10 10:25:48;;;;;;;13.30;11.82;;;;;;;;;;5078110;28;20488;-83
2023/05/10 10:28:24;;;;;;;13.02;11.60;;;;;;;;;;5078400;28;20448;-83
2023/05/10 10:30:51;;;;;;;12.20;10.90;;;;;;;;;;5094818;28;20426;-83
2023/05/10 10:33:32;;;;;;;12.93;11.60;;;;;;;;;;5094722;28;20427;-83
2023/05/10 10:36:03;;;;;;;14.48;12.05;;;;;;;;;;5094595;28;20440;-83
2023/05/10 10:38:47;;;;;;;13.95;12.45;;;;;;;;;;5094735;28;20428;-86
2023/05/10 10:41:33;;;;;;;13.88;12.48;;;;;;;;;;5094386;28;20413;-85
2023/05/10 10:44:18;;;;;;;13.82;11.90;;;;;;;;;;5094319;28;20397;-85
2023/05/10 10:47:05;;;;;;;14.40;12.65;;;;;;;;;;5092125;28;20466;-85
2023/05/10 10:49:32;;;;;;;14.73;11.80;;;;;;;;;;5081115;28;20269;-85
2023/05/10 10:52:32;;;;;;;13.82;12.32;;;;;;;;;;5077014;28;20420;-85
2023/05/10 10:55:01;;;;;;;14.30;12.70;;;;;;;;;;5091414;28;20430;-85
2023/05/10 10:57:29;;;;;;;14.47;12.97;;;;;;;;;;5094315;28;20444;-84
2023/05/10 11:00:14;;;;;;;14.35;12.70;;;;;;;;;;5077732;28;20409;-83
2023/05/10 11:02:48;;;;;;;13.77;11.95;;;;;;;;;;5090623;28;20472;-82
2023/05/10 11:05:24;;;;;;;14.13;12.23;;;;;;;;;;5074154;28;20406;-83
2023/05/10 11:07:57;;;;;;;13.63;11.93;;;;;;;;;;5074148;28;20513;-83
2023/05/10 11:10:23;;;;;;;14.65;13.15;;;;;;;;;;5074959;28;20493;-83
2023/05/10 11:13:02;;;;;;;13.88;12.48;;;;;;;;;;5093780;28;20412;-83
2023/05/10 11:15:30;;;;;;;14.40;12.90;;;;;;;;;;5092987;28;20462;-83
2023/05/10 11:17:56;;;;;;;14.50;12.90;;;;;;;;;;5092981;28;20515;-83
2023/05/10 11:20:24;;;;;;;16.38;13.50;;;;;;;;;;5074397;28;20513;-83
2023/05/10 11:22:54;;;;;;;14.55;13.05;;;;;;;;;;5061853;28;20422;-83
2023/05/10 11:25:20;;;;;;;15.38;12.90;;;;;;;;;;5093155;28;20404;-83
2023/05/10 11:27:49;;;;;;;16.50;13.10;;;;;;;;;;5094808;28;20447;-82
2023/05/10 11:30:16;;;;;;;14.75;12.30;;;;;;;;;;5093792;28;20458;-82
2023/05/10 11:32:42;;;;;;;13.43;12.13;;;;;;;;;;5076997;28;20405;-82
2023/05/10 11:35:12;;;;;;;13.83;12.43;;;;;;;;;;5093665;28;20415;-83
2023/05/10 11:37:43;;;;;;;12.88;11.68;;;;;;;;;;5073147;28;20528;-82
2023/05/10 11:40:09;;;;;;;12.40;10.65;;;;;;;;;;5073562;28;20406;-83
2023/05/10 11:42:38;;;;;;;11.85;10.70;;;;;;;;;;5072984;28;20407;-83
2023/05/10 11:45:05;;;;;;;13.25;11.32;;;;;;;;;;5081171;28;20426;-83
2023/05/10 11:47:31;;;;;;;11.63;10.43;;;;;;;;;;5076627;28;20409;-84
2023/05/10 11:49:57;;;;;;;10.95;9.50;;;;;;;;;;5093603;28;20405;-84
2023/05/10 11:52:23;;;;;;;10.70;9.60;;;;;;;;;;5093220;28;20440;-84
2023/05/10 11:54:56;;;;;;;10.68;9.23;;;;;;;;;;5073444;28;20501;-84
2023/05/10 11:57:26;;;;;;;10.83;9.73;;;;;;;;;;5072742;28;20505;-84
2023/05/10 11:59:57;;;;;;;11.15;10.05;;;;;;;;;;5073972;28;20489;-83
2023/05/10 12:02:23;;;;;;;11.13;10.02;;;;;;;;;;5072825;28;20401;-83
2023/05/10 12:04:49;;;;;;;11.07;9.77;;;;;;;;;;5073862;28;20390;-83
2023/05/10 12:07:15;;;;;;;10.52;9.43;;;;;;;;;;5072552;28;20575;-84
2023/05/10 12:09:45;;;;;;;11.75;9.80;;;;;;;;;;5072350;28;20491;-83
2023/05/10 12:12:11;;;;;;;11.55;10.35;;;;;;;;;;5072592;28;20406;-82
2023/05/10 12:14:37;;;;;;;12.02;10.18;;;;;;;;;;5073032;28;20417;-83
2023/05/10 12:17:03;;;;;;;12.23;11.02;;;;;;;;;;5072405;28;20453;-84
2023/05/10 12:19:37;;;;;;;11.80;10.43;;;;;;;;;;5072503;28;20409;-84
2023/05/10 12:22:05;;;;;;;11.35;9.95;;;;;;;;;;5072773;28;20501;-84
2023/05/10 12:24:31;;;;;;;10.83;9.73;;;;;;;;;;5072329;28;20452;-84
2023/05/10 12:26:57;;;;;;;11.00;9.73;;;;;;;;;;5072488;28;20495;-84
2023/05/10 12:29:23;;;;;;;10.80;9.65;;;;;;;;;;5072162;28;20441;-83
2023/05/10 12:31:53;;;;;;;12.38;9.55;;;;;;;;;;5073035;28;20484;-83
2023/05/10 12:34:26;;;;;;;10.80;9.40;;;;;;;;;;5074239;28;20421;-83
2023/05/10 12:36:55;;;;;;;9.60;8.60;;;;;;;;;;5089506;28;20438;-83
2023/05/10 12:39:21;;;;;;;9.47;8.37;;;;;;;;;;5074955;28;20424;-81
2023/05/10 12:41:47;;;;;;;8.70;7.60;;;;;;;;;;5092272;28;20408;-84
2023/05/10 12:44:13;;;;;;;8.98;8.07;;;;;;;;;;5093319;28;20402;-83
2023/05/10 12:46:39;;;;;;;9.00;8.10;;;;;;;;;;5075845;28;20466;-83
2023/05/10 12:49:06;;;;;;;8.10;7.30;;;;;;;;;;5076039;28;20405;-84
2023/05/10 12:51:32;;;;;;;9.02;8.07;;;;;;;;;;5075496;28;20481;-82
2023/05/10 12:53:58;;;;;;;9.07;7.63;;;;;;;;;;5075552;28;20408;-82
2023/05/10 12:56:24;;;;;;;8.13;7.33;;;;;;;;;;5075488;28;20401;-82
2023/05/10 12:58:50;;;;;;;7.75;6.97;;;;;;;;;;5075635;28;20428;-82
2023/05/10 13:01:16;;;;;;;7.93;7.07;;;;;;;;;;5075195;28;20397;-82
2023/05/10 13:03:45;;;;;;;8.10;7.22;;;;;;;;;;5092148;28;20408;-82
2023/05/10 13:06:13;;;;;;;7.70;6.90;;;;;;;;;;5092358;28;20393;-82
2023/05/10 13:08:39;;;;;;;7.55;6.85;;;;;;;;;;5075574;28;20505;-84
2023/05/10 13:11:06;;;;;;;8.10;7.30;;;;;;;;;;5092404;28;20456;-84
2023/05/10 13:13:32;;;;;;;8.45;7.05;;;;;;;;;;5093486;28;20405;-84
2023/05/10 13:15:58;;;;;;;8.20;7.30;;;;;;;;;;5092385;28;20486;-84
2023/05/10 13:18:25;;;;;;;8.70;7.80;;;;;;;;;;5072046;28;20430;-84
2023/05/10 13:20:52;;;;;;;10.02;8.02;;;;;;;;;;5089329;28;20426;-84
2023/05/10 13:23:18;;;;;;;10.00;8.00;;;;;;;;;;5071996;28;20460;-84
2023/05/10 13:25:44;;;;;;;9.30;8.40;;;;;;;;;;5071623;28;20409;-82
2023/05/10 13:28:10;;;;;;;10.95;7.60;;;;;;;;;;5088484;28;20414;-82
2023/05/10 13:30:36;;;;;;;9.68;7.63;;;;;;;;;;5091022;28;20429;-82
2023/05/10 13:33:02;;;;;;;9.70;7.75;;;;;;;;;;5091879;28;20433;-83
2023/05/10 13:35:28;;;;;;;10.35;8.00;;;;;;;;;;5072000;28;20420;-84
2023/05/10 13:37:57;;;;;;;10.05;7.93;;;;;;;;;;5091694;28;20427;-83
2023/05/10 13:40:23;;;;;;;9.80;8.45;;;;;;;;;;5092592;28;20405;-84
2023/05/10 13:42:49;;;;;;;9.10;8.20;;;;;;;;;;5092078;28;20401;-85
2023/05/10 13:45:15;;;;;;;9.10;8.20;;;;;;;;;;5095691;28;20461;-85
2023/05/10 13:47:42;;;;;;;8.80;7.90;;;;;;;;;;5095805;28;20404;-84
2023/05/10 13:50:08;;;;;;;8.45;7.65;;;;;;;;;;5095668;28;20422;-84
2023/05/10 13:52:34;;;;;;;8.40;7.47;;;;;;;;;;5078634;28;20408;-83
2023/05/10 13:55:00;;;;;;;8.60;7.70;;;;;;;;;;5078389;28;20431;-83
2023/05/10 13:57:26;;;;;;;8.63;7.18;;;;;;;;;;5078455;28;20432;-82
2023/05/10 13:59:53;;;;;;;8.43;7.22;;;;;;;;;;5095202;28;20393;-82
2023/05/10 14:02:19;;;;;;;8.10;7.30;;;;;;;;;;5094578;28;20464;-83
2023/05/10 14:04:45;;;;;;;9.10;8.20;;;;;;;;;;5096131;28;20433;-82
2023/05/10 14:07:11;;;;;;;9.50;8.52;;;;;;;;;;5077972;28;20457;-83
2023/05/10 14:09:37;;;;;;;11.35;10.25;;;;;;;;;;5074600;28;20409;-82
2023/05/10 14:12:03;;;;;;;11.30;10.20;;;;;;;;;;5074780;28;20402;-83
2023/05/10 14:14:29;;;;;;;10.87;9.87;;;;;;;;;;5075704;28;20406;-83
2023/05/10 14:16:55;;;;;;;11.13;10.13;;;;;;;;;;5091729;28;20459;-82
2023/05/10 14:19:21;;;;;;;12.10;11.00;;;;;;;;;;5075759;28;20467;-82
2023/05/10 14:21:47;;;;;;;12.17;11.07;;;;;;;;;;5074333;28;20399;-82
2023/05/10 14:24:14;;;;;;;12.57;11.45;;;;;;;;;;5086184;28;20426;-82
2023/05/10 14:26:40;;;;;;;13.38;12.10;;;;;;;;;;5074949;28;20476;-82
2023/05/10 14:29:06;;;;;;;13.05;11.88;;;;;;;;;;5074613;28;20414;-81
2023/05/10 14:31:32;;;;;;;13.32;12.10;;;;;;;;;;5075012;28;20468;-82
2023/05/10 14:33:58;;;;;;;12.93;11.80;;;;;;;;;;5088264;28;20417;-82
2023/05/10 14:36:25;;;;;;;14.30;12.90;;;;;;;;;;5074327;28;20411;-82
2023/05/10 14:38:51;;;;;;;13.30;12.15;;;;;;;;;;5093354;28;20424;-82
2023/05/10 14:41:18;;;;;;;13.38;12.18;;;;;;;;;;5078194;28;20401;-82
2023/05/10 14:43:44;;;;;;;12.82;11.73;;;;;;;;;;5093360;28;20420;-82
2023/05/10 14:46:10;;;;;;;13.57;12.30;;;;;;;;;;5091312;28;20419;-82
2023/05/10 14:48:36;;;;;;;13.10;11.90;;;;;;;;;;5110286;28;20439;-82
2023/05/10 14:51:03;;;;;;;12.10;11.00;;;;;;;;;;5094535;28;20434;-84
2023/05/10 14:53:29;;;;;;;11.03;10.10;;;;;;;;;;5076089;28;20429;-84
2023/05/10 14:55:55;;;;;;;10.38;9.48;;;;;;;;;;5077440;28;20427;-85
2023/05/10 14:58:21;;;;;;;9.75;8.85;;;;;;;;;;5094076;28;20425;-84